sensor_id;sensor_type;location;lat;lon;timestamp;P1;durP1;ratioP1;P2;durP2;ratioP2
21494;SDS011;10909;53.590;10.054;2023-04-15T00:00:09;2.30;;;2.10;;
21494;SDS011;10909;53.590;10.054;2023-04-15T00:02:36;2.77;;;2.20;;
21494;SDS011;10909;53.590;10.054;2023-04-15T00:05:02;2.23;;;2.03;;
21494;SDS011;10909;53.590;10.054;2023-04-15T00:07:29;1.80;;;1.70;;
21494;SDS011;10909;53.590;10.054;2023-04-15T00:09:55;1.90;;;1.80;;
21494;SDS011;10909;53.590;10.054;2023-04-15T00:12:22;2.27;;;2.07;;
21494;SDS011;10909;53.590;10.054;2023-04-15T00:14:49;2.30;;;2.10;;
21494;SDS011;10909;53.590;10.054;2023-04-15T00:17:16;2.50;;;2.30;;
21494;SDS011;10909;53.590;10.054;2023-04-15T00:19:42;3.87;;;2.50;;
21494;SDS011;10909;53.590;10.054;2023-04-15T00:22:11;0.30;;;0.30;;
21494;SDS011;10909;53.590;10.054;2023-04-15T00:24:37;2.13;;;1.93;;
21494;SDS011;10909;53.590;10.054;2023-04-15T00:27:03;2.27;;;2.07;;
21494;SDS011;10909;53.590;10.054;2023-04-15T00:29:29;2.30;;;2.10;;
21494;SDS011;10909;53.590;10.054;2023-04-15T00:31:55;2.30;;;2.10;;
21494;SDS011;10909;53.590;10.054;2023-04-15T00:34:22;2.27;;;2.07;;
21494;SDS011;10909;53.590;10.054;2023-04-15T00:36:51;2.00;;;1.87;;
21494;SDS011;10909;53.590;10.054;2023-04-15T00:39:17;2.33;;;1.73;;
21494;SDS011;10909;53.590;10.054;2023-04-15T00:41:43;2.30;;;2.10;;
21494;SDS011;10909;53.590;10.054;2023-04-15T00:44:10;2.57;;;2.20;;
21494;SDS011;10909;53.590;10.054;2023-04-15T00:46:36;2.10;;;1.90;;
21494;SDS011;10909;53.590;10.054;2023-04-15T00:49:03;2.10;;;1.90;;
21494;SDS011;10909;53.590;10.054;2023-04-15T00:51:30;1.93;;;1.73;;
21494;SDS011;10909;53.590;10.054;2023-04-15T00:53:57;2.80;;;2.50;;
21494;SDS011;10909;53.590;10.054;2023-04-15T00:56:24;3.10;;;2.10;;
21494;SDS011;10909;53.590;10.054;2023-04-15T00:58:51;2.13;;;1.93;;
21494;SDS011;10909;53.590;10.054;2023-04-15T01:01:20;1.97;;;1.77;;
21494;SDS011;10909;53.590;10.054;2023-04-15T01:03:47;2.20;;;2.00;;
21494;SDS011;10909;53.590;10.054;2023-04-15T01:06:14;1.40;;;1.30;;
21494;SDS011;10909;53.590;10.054;2023-04-15T01:08:40;2.00;;;1.80;;
21494;SDS011;10909;53.590;10.054;2023-04-15T01:11:06;2.27;;;1.90;;
21494;SDS011;10909;53.590;10.054;2023-04-15T01:13:32;2.47;;;2.03;;
21494;SDS011;10909;53.590;10.054;2023-04-15T01:15:58;2.40;;;1.90;;
21494;SDS011;10909;53.590;10.054;2023-04-15T01:18:24;2.17;;;1.97;;
21494;SDS011;10909;53.590;10.054;2023-04-15T01:20:51;1.70;;;1.60;;
21494;SDS011;10909;53.590;10.054;2023-04-15T01:23:17;2.00;;;1.80;;
21494;SDS011;10909;53.590;10.054;2023-04-15T01:25:43;2.20;;;2.00;;
21494;SDS011;10909;53.590;10.054;2023-04-15T01:28:09;2.10;;;1.90;;
21494;SDS011;10909;53.590;10.054;2023-04-15T01:30:35;2.50;;;2.10;;
21494;SDS011;10909;53.590;10.054;2023-04-15T01:33:01;2.17;;;1.97;;
21494;SDS011;10909;53.590;10.054;2023-04-15T01:35:27;2.33;;;2.00;;
21494;SDS011;10909;53.590;10.054;2023-04-15T01:37:53;2.37;;;2.10;;
21494;SDS011;10909;53.590;10.054;2023-04-15T01:40:22;2.23;;;2.03;;
21494;SDS011;10909;53.590;10.054;2023-04-15T01:42:47;2.20;;;2.00;;
21494;SDS011;10909;53.590;10.054;2023-04-15T01:45:13;2.10;;;1.90;;
21494;SDS011;10909;53.590;10.054;2023-04-15T01:47:39;2.77;;;2.30;;
21494;SDS011;10909;53.590;10.054;2023-04-15T01:50:05;2.60;;;2.40;;
21494;SDS011;10909;53.590;10.054;2023-04-15T01:52:31;2.27;;;2.07;;
21494;SDS011;10909;53.590;10.054;2023-04-15T01:54:57;2.13;;;1.93;;
21494;SDS011;10909;53.590;10.054;2023-04-15T01:57:22;2.27;;;2.07;;
21494;SDS011;10909;53.590;10.054;2023-04-15T01:59:48;2.20;;;2.00;;
21494;SDS011;10909;53.590;10.054;2023-04-15T02:02:13;2.47;;;2.27;;
21494;SDS011;10909;53.590;10.054;2023-04-15T02:04:40;2.50;;;2.30;;
21494;SDS011;10909;53.590;10.054;2023-04-15T02:07:05;2.67;;;2.47;;
21494;SDS011;10909;53.590;10.054;2023-04-15T02:09:31;3.17;;;2.83;;
21494;SDS011;10909;53.590;10.054;2023-04-15T02:11:57;2.93;;;2.63;;
21494;SDS011;10909;53.590;10.054;2023-04-15T02:14:22;2.90;;;2.60;;
21494;SDS011;10909;53.590;10.054;2023-04-15T02:16:48;2.87;;;2.57;;
21494;SDS011;10909;53.590;10.054;2023-04-15T02:19:14;2.83;;;2.53;;
21494;SDS011;10909;53.590;10.054;2023-04-15T02:21:40;3.13;;;2.83;;
21494;SDS011;10909;53.590;10.054;2023-04-15T02:24:05;3.50;;;3.10;;
21494;SDS011;10909;53.590;10.054;2023-04-15T02:26:31;2.83;;;2.60;;
21494;SDS011;10909;53.590;10.054;2023-04-15T02:28:57;3.07;;;2.67;;
21494;SDS011;10909;53.590;10.054;2023-04-15T02:31:24;3.07;;;2.77;;
21494;SDS011;10909;53.590;10.054;2023-04-15T02:33:50;3.53;;;2.90;;
21494;SDS011;10909;53.590;10.054;2023-04-15T02:36:16;3.03;;;2.73;;
21494;SDS011;10909;53.590;10.054;2023-04-15T02:38:41;3.37;;;3.07;;
21494;SDS011;10909;53.590;10.054;2023-04-15T02:41:08;3.63;;;3.00;;
21494;SDS011;10909;53.590;10.054;2023-04-15T02:43:34;3.30;;;2.80;;
21494;SDS011;10909;53.590;10.054;2023-04-15T02:46:00;3.20;;;2.70;;
21494;SDS011;10909;53.590;10.054;2023-04-15T02:48:26;3.60;;;3.30;;
21494;SDS011;10909;53.590;10.054;2023-04-15T02:50:52;3.43;;;3.03;;
21494;SDS011;10909;53.590;10.054;2023-04-15T02:53:18;3.43;;;3.13;;
21494;SDS011;10909;53.590;10.054;2023-04-15T02:55:44;3.90;;;3.50;;
21494;SDS011;10909;53.590;10.054;2023-04-15T02:58:11;3.93;;;3.53;;
21494;SDS011;10909;53.590;10.054;2023-04-15T03:00:37;3.10;;;2.80;;
21494;SDS011;10909;53.590;10.054;2023-04-15T03:03:04;3.73;;;3.37;;
21494;SDS011;10909;53.590;10.054;2023-04-15T03:05:30;4.57;;;3.83;;
21494;SDS011;10909;53.590;10.054;2023-04-15T03:07:56;3.90;;;3.50;;
21494;SDS011;10909;53.590;10.054;2023-04-15T03:10:21;3.60;;;3.27;;
21494;SDS011;10909;53.590;10.054;2023-04-15T03:12:47;4.10;;;3.70;;
21494;SDS011;10909;53.590;10.054;2023-04-15T03:15:13;3.90;;;3.40;;
21494;SDS011;10909;53.590;10.054;2023-04-15T03:17:39;4.33;;;3.83;;
21494;SDS011;10909;53.590;10.054;2023-04-15T03:20:05;4.37;;;3.67;;
21494;SDS011;10909;53.590;10.054;2023-04-15T03:22:31;4.20;;;3.80;;
21494;SDS011;10909;53.590;10.054;2023-04-15T03:24:57;5.47;;;4.97;;
21494;SDS011;10909;53.590;10.054;2023-04-15T03:27:23;5.00;;;4.40;;
21494;SDS011;10909;53.590;10.054;2023-04-15T03:29:49;6.00;;;4.93;;
21494;SDS011;10909;53.590;10.054;2023-04-15T03:32:16;6.30;;;5.20;;
21494;SDS011;10909;53.590;10.054;2023-04-15T03:34:42;5.90;;;5.27;;
21494;SDS011;10909;53.590;10.054;2023-04-15T03:37:14;5.00;;;4.50;;
21494;SDS011;10909;53.590;10.054;2023-04-15T03:39:44;5.83;;;5.03;;
21494;SDS011;10909;53.590;10.054;2023-04-15T03:42:10;6.53;;;5.23;;
21494;SDS011;10909;53.590;10.054;2023-04-15T03:44:36;6.07;;;4.97;;
21494;SDS011;10909;53.590;10.054;2023-04-15T03:47:02;5.43;;;4.80;;
21494;SDS011;10909;53.590;10.054;2023-04-15T03:49:30;6.17;;;5.00;;
21494;SDS011;10909;53.590;10.054;2023-04-15T03:51:56;6.37;;;5.40;;
21494;SDS011;10909;53.590;10.054;2023-04-15T03:54:23;7.23;;;5.10;;
21494;SDS011;10909;53.590;10.054;2023-04-15T03:56:49;6.33;;;5.03;;
21494;SDS011;10909;53.590;10.054;2023-04-15T03:59:15;6.77;;;5.70;;
21494;SDS011;10909;53.590;10.054;2023-04-15T04:01:40;5.53;;;4.70;;
21494;SDS011;10909;53.590;10.054;2023-04-15T04:04:06;7.40;;;5.60;;
21494;SDS011;10909;53.590;10.054;2023-04-15T04:06:32;5.80;;;4.73;;
21494;SDS011;10909;53.590;10.054;2023-04-15T04:08:58;6.30;;;5.10;;
21494;SDS011;10909;53.590;10.054;2023-04-15T04:11:23;6.97;;;5.00;;
21494;SDS011;10909;53.590;10.054;2023-04-15T04:13:49;5.83;;;5.20;;
21494;SDS011;10909;53.590;10.054;2023-04-15T04:16:15;6.43;;;4.87;;
21494;SDS011;10909;53.590;10.054;2023-04-15T04:18:41;5.70;;;4.57;;
21494;SDS011;10909;53.590;10.054;2023-04-15T04:21:07;5.77;;;4.80;;
21494;SDS011;10909;53.590;10.054;2023-04-15T04:23:32;5.73;;;5.13;;
21494;SDS011;10909;53.590;10.054;2023-04-15T04:25:58;6.00;;;5.00;;
21494;SDS011;10909;53.590;10.054;2023-04-15T04:28:24;5.67;;;4.80;;
21494;SDS011;10909;53.590;10.054;2023-04-15T04:30:49;7.30;;;5.07;;
21494;SDS011;10909;53.590;10.054;2023-04-15T04:33:15;6.13;;;5.00;;
21494;SDS011;10909;53.590;10.054;2023-04-15T04:35:41;7.20;;;5.40;;
21494;SDS011;10909;53.590;10.054;2023-04-15T04:38:07;6.40;;;5.73;;
21494;SDS011;10909;53.590;10.054;2023-04-15T04:40:34;6.90;;;5.73;;
21494;SDS011;10909;53.590;10.054;2023-04-15T04:43:01;6.33;;;5.53;;
21494;SDS011;10909;53.590;10.054;2023-04-15T04:45:27;7.27;;;5.87;;
21494;SDS011;10909;53.590;10.054;2023-04-15T04:47:53;8.53;;;6.40;;
21494;SDS011;10909;53.590;10.054;2023-04-15T04:50:19;7.77;;;6.20;;
21494;SDS011;10909;53.590;10.054;2023-04-15T04:52:45;7.20;;;6.27;;
21494;SDS011;10909;53.590;10.054;2023-04-15T04:55:10;9.40;;;6.83;;
21494;SDS011;10909;53.590;10.054;2023-04-15T04:57:36;9.23;;;6.97;;
21494;SDS011;10909;53.590;10.054;2023-04-15T05:00:03;8.03;;;6.57;;
21494;SDS011;10909;53.590;10.054;2023-04-15T05:02:32;8.53;;;7.17;;
21494;SDS011;10909;53.590;10.054;2023-04-15T05:04:58;8.90;;;7.03;;
21494;SDS011;10909;53.590;10.054;2023-04-15T05:07:23;8.57;;;7.23;;
21494;SDS011;10909;53.590;10.054;2023-04-15T05:09:49;10.83;;;8.27;;
21494;SDS011;10909;53.590;10.054;2023-04-15T05:12:15;10.17;;;7.93;;
21494;SDS011;10909;53.590;10.054;2023-04-15T05:14:42;10.53;;;7.83;;
21494;SDS011;10909;53.590;10.054;2023-04-15T05:17:08;9.23;;;7.60;;
21494;SDS011;10909;53.590;10.054;2023-04-15T05:19:34;11.03;;;9.07;;
21494;SDS011;10909;53.590;10.054;2023-04-15T05:22:00;10.67;;;8.67;;
21494;SDS011;10909;53.590;10.054;2023-04-15T05:24:33;10.47;;;8.33;;
21494;SDS011;10909;53.590;10.054;2023-04-15T05:26:58;10.57;;;8.17;;
21494;SDS011;10909;53.590;10.054;2023-04-15T05:29:26;10.87;;;8.13;;
21494;SDS011;10909;53.590;10.054;2023-04-15T05:31:51;11.33;;;8.70;;
21494;SDS011;10909;53.590;10.054;2023-04-15T05:34:17;11.40;;;8.37;;
21494;SDS011;10909;53.590;10.054;2023-04-15T05:36:43;11.07;;;8.87;;
21494;SDS011;10909;53.590;10.054;2023-04-15T05:39:10;10.33;;;8.30;;
21494;SDS011;10909;53.590;10.054;2023-04-15T05:41:36;10.60;;;7.73;;
21494;SDS011;10909;53.590;10.054;2023-04-15T05:44:02;11.13;;;9.20;;
21494;SDS011;10909;53.590;10.054;2023-04-15T05:46:28;11.60;;;9.37;;
21494;SDS011;10909;53.590;10.054;2023-04-15T05:48:53;13.23;;;9.90;;
21494;SDS011;10909;53.590;10.054;2023-04-15T05:51:19;12.93;;;9.07;;
21494;SDS011;10909;53.590;10.054;2023-04-15T05:53:45;12.27;;;9.03;;
21494;SDS011;10909;53.590;10.054;2023-04-15T05:56:11;10.33;;;8.53;;
21494;SDS011;10909;53.590;10.054;2023-04-15T05:58:36;11.00;;;8.70;;
21494;SDS011;10909;53.590;10.054;2023-04-15T06:01:02;11.57;;;9.50;;
21494;SDS011;10909;53.590;10.054;2023-04-15T06:03:32;10.43;;;8.47;;
21494;SDS011;10909;53.590;10.054;2023-04-15T06:05:58;10.67;;;9.00;;
21494;SDS011;10909;53.590;10.054;2023-04-15T06:08:24;11.07;;;8.50;;
21494;SDS011;10909;53.590;10.054;2023-04-15T06:10:51;10.70;;;8.20;;
21494;SDS011;10909;53.590;10.054;2023-04-15T06:13:17;10.90;;;8.43;;
21494;SDS011;10909;53.590;10.054;2023-04-15T06:15:44;11.27;;;8.40;;
21494;SDS011;10909;53.590;10.054;2023-04-15T06:18:10;13.20;;;8.33;;
21494;SDS011;10909;53.590;10.054;2023-04-15T06:20:36;13.07;;;9.40;;
21494;SDS011;10909;53.590;10.054;2023-04-15T06:23:01;11.33;;;8.83;;
21494;SDS011;10909;53.590;10.054;2023-04-15T06:25:27;10.90;;;8.80;;
21494;SDS011;10909;53.590;10.054;2023-04-15T06:27:52;11.30;;;8.30;;
21494;SDS011;10909;53.590;10.054;2023-04-15T06:30:18;10.37;;;8.90;;
21494;SDS011;10909;53.590;10.054;2023-04-15T06:32:44;13.17;;;9.93;;
21494;SDS011;10909;53.590;10.054;2023-04-15T06:35:10;11.47;;;8.97;;
21494;SDS011;10909;53.590;10.054;2023-04-15T06:37:36;13.30;;;9.43;;
21494;SDS011;10909;53.590;10.054;2023-04-15T06:40:02;13.70;;;10.27;;
21494;SDS011;10909;53.590;10.054;2023-04-15T06:42:29;11.50;;;9.30;;
21494;SDS011;10909;53.590;10.054;2023-04-15T06:44:55;11.37;;;9.07;;
21494;SDS011;10909;53.590;10.054;2023-04-15T06:47:21;12.37;;;9.97;;
21494;SDS011;10909;53.590;10.054;2023-04-15T06:49:47;13.90;;;10.30;;
21494;SDS011;10909;53.590;10.054;2023-04-15T06:52:12;13.20;;;10.53;;
21494;SDS011;10909;53.590;10.054;2023-04-15T06:54:38;14.77;;;10.73;;
21494;SDS011;10909;53.590;10.054;2023-04-15T06:57:06;13.10;;;9.83;;
21494;SDS011;10909;53.590;10.054;2023-04-15T06:59:33;13.37;;;10.77;;
21494;SDS011;10909;53.590;10.054;2023-04-15T07:01:58;15.73;;;12.33;;
21494;SDS011;10909;53.590;10.054;2023-04-15T07:04:24;17.93;;;13.83;;
21494;SDS011;10909;53.590;10.054;2023-04-15T07:06:50;16.63;;;12.27;;
21494;SDS011;10909;53.590;10.054;2023-04-15T07:09:15;16.13;;;12.70;;
21494;SDS011;10909;53.590;10.054;2023-04-15T07:11:41;17.10;;;13.17;;
21494;SDS011;10909;53.590;10.054;2023-04-15T07:14:07;16.37;;;12.73;;
21494;SDS011;10909;53.590;10.054;2023-04-15T07:16:32;15.80;;;12.30;;
21494;SDS011;10909;53.590;10.054;2023-04-15T07:18:58;17.37;;;13.33;;
21494;SDS011;10909;53.590;10.054;2023-04-15T07:21:24;14.00;;;11.17;;
21494;SDS011;10909;53.590;10.054;2023-04-15T07:23:49;16.50;;;12.10;;
21494;SDS011;10909;53.590;10.054;2023-04-15T07:26:16;17.53;;;13.27;;
21494;SDS011;10909;53.590;10.054;2023-04-15T07:28:41;16.87;;;12.07;;
21494;SDS011;10909;53.590;10.054;2023-04-15T07:31:07;13.73;;;11.30;;
21494;SDS011;10909;53.590;10.054;2023-04-15T07:33:33;15.90;;;12.53;;
21494;SDS011;10909;53.590;10.054;2023-04-15T07:35:59;15.20;;;11.07;;
21494;SDS011;10909;53.590;10.054;2023-04-15T07:38:25;17.17;;;12.77;;
21494;SDS011;10909;53.590;10.054;2023-04-15T07:40:50;17.13;;;13.17;;
21494;SDS011;10909;53.590;10.054;2023-04-15T07:43:16;15.77;;;11.67;;
21494;SDS011;10909;53.590;10.054;2023-04-15T07:45:42;14.60;;;12.00;;
21494;SDS011;10909;53.590;10.054;2023-04-15T07:48:08;14.60;;;11.53;;
21494;SDS011;10909;53.590;10.054;2023-04-15T07:50:34;14.83;;;11.33;;
21494;SDS011;10909;53.590;10.054;2023-04-15T07:52:59;13.83;;;11.47;;
21494;SDS011;10909;53.590;10.054;2023-04-15T07:55:26;13.97;;;11.77;;
21494;SDS011;10909;53.590;10.054;2023-04-15T07:57:54;16.67;;;11.77;;
21494;SDS011;10909;53.590;10.054;2023-04-15T08:00:20;15.83;;;12.70;;
21494;SDS011;10909;53.590;10.054;2023-04-15T08:02:46;16.23;;;12.53;;
21494;SDS011;10909;53.590;10.054;2023-04-15T08:05:12;14.87;;;11.60;;
21494;SDS011;10909;53.590;10.054;2023-04-15T08:07:40;14.83;;;11.93;;
21494;SDS011;10909;53.590;10.054;2023-04-15T08:10:06;16.53;;;11.87;;
21494;SDS011;10909;53.590;10.054;2023-04-15T08:12:32;17.37;;;13.53;;
21494;SDS011;10909;53.590;10.054;2023-04-15T08:14:58;14.80;;;11.67;;
21494;SDS011;10909;53.590;10.054;2023-04-15T08:17:24;17.23;;;12.90;;
21494;SDS011;10909;53.590;10.054;2023-04-15T08:19:50;16.83;;;12.97;;
21494;SDS011;10909;53.590;10.054;2023-04-15T08:22:15;15.80;;;12.93;;
21494;SDS011;10909;53.590;10.054;2023-04-15T08:24:41;14.20;;;11.90;;
21494;SDS011;10909;53.590;10.054;2023-04-15T08:27:07;17.90;;;13.30;;
21494;SDS011;10909;53.590;10.054;2023-04-15T08:29:33;18.37;;;13.00;;
21494;SDS011;10909;53.590;10.054;2023-04-15T08:31:59;14.80;;;12.10;;
21494;SDS011;10909;53.590;10.054;2023-04-15T08:34:27;15.43;;;11.87;;
21494;SDS011;10909;53.590;10.054;2023-04-15T08:36:54;16.57;;;12.47;;
21494;SDS011;10909;53.590;10.054;2023-04-15T08:39:19;14.33;;;11.37;;
21494;SDS011;10909;53.590;10.054;2023-04-15T08:42:10;16.83;;;13.07;;
21494;SDS011;10909;53.590;10.054;2023-04-15T08:44:36;13.93;;;11.63;;
21494;SDS011;10909;53.590;10.054;2023-04-15T08:47:07;15.07;;;11.37;;
21494;SDS011;10909;53.590;10.054;2023-04-15T08:49:34;17.00;;;13.03;;
21494;SDS011;10909;53.590;10.054;2023-04-15T08:52:06;14.70;;;12.53;;
21494;SDS011;10909;53.590;10.054;2023-04-15T08:54:33;16.03;;;12.23;;
21494;SDS011;10909;53.590;10.054;2023-04-15T08:57:01;15.37;;;11.27;;
21494;SDS011;10909;53.590;10.054;2023-04-15T08:59:29;17.00;;;13.00;;
21494;SDS011;10909;53.590;10.054;2023-04-15T09:01:57;15.90;;;13.13;;
21494;SDS011;10909;53.590;10.054;2023-04-15T09:04:25;18.93;;;14.93;;
21494;SDS011;10909;53.590;10.054;2023-04-15T09:06:51;17.57;;;14.27;;
21494;SDS011;10909;53.590;10.054;2023-04-15T09:09:17;19.67;;;14.40;;
21494;SDS011;10909;53.590;10.054;2023-04-15T09:11:43;17.10;;;12.73;;
21494;SDS011;10909;53.590;10.054;2023-04-15T09:14:08;19.27;;;13.93;;
21494;SDS011;10909;53.590;10.054;2023-04-15T09:19:23;18.77;;;14.23;;
21494;SDS011;10909;53.590;10.054;2023-04-15T09:21:53;17.43;;;13.73;;
21494;SDS011;10909;53.590;10.054;2023-04-15T09:24:21;17.03;;;13.03;;
21494;SDS011;10909;53.590;10.054;2023-04-15T09:26:47;17.47;;;13.27;;
21494;SDS011;10909;53.590;10.054;2023-04-15T09:29:15;17.57;;;13.80;;
21494;SDS011;10909;53.590;10.054;2023-04-15T09:31:42;16.73;;;12.90;;
21494;SDS011;10909;53.590;10.054;2023-04-15T09:34:08;17.73;;;14.07;;
21494;SDS011;10909;53.590;10.054;2023-04-15T09:37:07;17.80;;;14.05;;
21494;SDS011;10909;53.590;10.054;2023-04-15T09:39:27;18.25;;;13.25;;
21494;SDS011;10909;53.590;10.054;2023-04-15T09:42:11;16.02;;;13.23;;
21494;SDS011;10909;53.590;10.054;2023-04-15T09:44:36;17.98;;;12.45;;
21494;SDS011;10909;53.590;10.054;2023-04-15T09:47:02;17.33;;;12.25;;
21494;SDS011;10909;53.590;10.054;2023-04-15T09:49:28;16.23;;;13.63;;
21494;SDS011;10909;53.590;10.054;2023-04-15T09:51:58;18.30;;;12.85;;
21494;SDS011;10909;53.590;10.054;2023-04-15T09:54:27;14.88;;;12.00;;
21494;SDS011;10909;53.590;10.054;2023-04-15T09:57:05;16.33;;;12.88;;
21494;SDS011;10909;53.590;10.054;2023-04-15T09:59:37;15.35;;;11.88;;
21494;SDS011;10909;53.590;10.054;2023-04-15T10:02:03;16.80;;;12.13;;
21494;SDS011;10909;53.590;10.054;2023-04-15T10:04:30;17.88;;;12.55;;
21494;SDS011;10909;53.590;10.054;2023-04-15T10:06:59;15.10;;;12.60;;
21494;SDS011;10909;53.590;10.054;2023-04-15T10:09:27;16.27;;;12.85;;
21494;SDS011;10909;53.590;10.054;2023-04-15T10:11:54;12.05;;;9.40;;
21494;SDS011;10909;53.590;10.054;2023-04-15T10:14:20;13.48;;;11.45;;
21494;SDS011;10909;53.590;10.054;2023-04-15T10:16:46;13.18;;;11.40;;
21494;SDS011;10909;53.590;10.054;2023-04-15T10:19:13;13.63;;;11.40;;
21494;SDS011;10909;53.590;10.054;2023-04-15T10:21:40;14.55;;;11.80;;
21494;SDS011;10909;53.590;10.054;2023-04-15T10:24:06;15.85;;;12.00;;
21494;SDS011;10909;53.590;10.054;2023-04-15T10:26:32;14.18;;;11.00;;
21494;SDS011;10909;53.590;10.054;2023-04-15T10:28:59;13.18;;;10.65;;
21494;SDS011;10909;53.590;10.054;2023-04-15T10:31:27;13.48;;;11.98;;
21494;SDS011;10909;53.590;10.054;2023-04-15T10:33:53;12.13;;;10.75;;
21494;SDS011;10909;53.590;10.054;2023-04-15T10:36:20;10.85;;;9.75;;
21494;SDS011;10909;53.590;10.054;2023-04-15T10:38:46;10.52;;;9.50;;
21494;SDS011;10909;53.590;10.054;2023-04-15T10:41:19;11.00;;;9.32;;
21494;SDS011;10909;53.590;10.054;2023-04-15T10:43:49;12.00;;;10.55;;
21494;SDS011;10909;53.590;10.054;2023-04-15T10:46:23;11.45;;;10.25;;
21494;SDS011;10909;53.590;10.054;2023-04-15T10:49:12;10.13;;;9.07;;
21494;SDS011;10909;53.590;10.054;2023-04-15T10:51:50;10.40;;;9.32;;
21494;SDS011;10909;53.590;10.054;2023-04-15T10:57:34;11.43;;;8.95;;
21494;SDS011;10909;53.590;10.054;2023-04-15T11:02:40;8.85;;;7.95;;
21494;SDS011;10909;53.590;10.054;2023-04-15T11:05:12;9.23;;;8.25;;
21494;SDS011;10909;53.590;10.054;2023-04-15T11:12:42;8.07;;;7.28;;
21494;SDS011;10909;53.590;10.054;2023-04-15T11:17:54;8.40;;;7.55;;
21494;SDS011;10909;53.590;10.054;2023-04-15T11:20:24;8.63;;;6.43;;
21494;SDS011;10909;53.590;10.054;2023-04-15T11:22:50;7.97;;;7.18;;
21494;SDS011;10909;53.590;10.054;2023-04-15T11:25:24;9.48;;;7.28;;
21494;SDS011;10909;53.590;10.054;2023-04-15T11:27:51;7.80;;;7.00;;
21494;SDS011;10909;53.590;10.054;2023-04-15T11:30:18;8.10;;;6.93;;
21494;SDS011;10909;53.590;10.054;2023-04-15T11:32:47;10.13;;;7.57;;
21494;SDS011;10909;53.590;10.054;2023-04-15T11:35:19;8.15;;;7.35;;
21494;SDS011;10909;53.590;10.054;2023-04-15T11:37:46;8.20;;;7.40;;
21494;SDS011;10909;53.590;10.054;2023-04-15T11:40:13;8.48;;;7.68;;
21494;SDS011;10909;53.590;10.054;2023-04-15T11:42:41;8.30;;;7.50;;
21494;SDS011;10909;53.590;10.054;2023-04-15T11:45:08;8.60;;;7.38;;
21494;SDS011;10909;53.590;10.054;2023-04-15T11:47:39;7.55;;;6.85;;
21494;SDS011;10909;53.590;10.054;2023-04-15T11:50:18;7.82;;;6.95;;
21494;SDS011;10909;53.590;10.054;2023-04-15T11:52:57;7.95;;;6.70;;
21494;SDS011;10909;53.590;10.054;2023-04-15T11:55:24;7.80;;;6.82;;
21494;SDS011;10909;53.590;10.054;2023-04-15T11:58:04;7.70;;;7.00;;
21494;SDS011;10909;53.590;10.054;2023-04-15T12:00:32;6.88;;;6.28;;
21494;SDS011;10909;53.590;10.054;2023-04-15T12:03:12;8.45;;;7.00;;
21494;SDS011;10909;53.590;10.054;2023-04-15T12:06:01;7.45;;;6.47;;
21494;SDS011;10909;53.590;10.054;2023-04-15T12:08:52;7.70;;;6.75;;
21494;SDS011;10909;53.590;10.054;2023-04-15T12:13:53;8.23;;;7.38;;
21494;SDS011;10909;53.590;10.054;2023-04-15T12:16:21;7.57;;;6.80;;
21494;SDS011;10909;53.590;10.054;2023-04-15T12:18:50;8.10;;;7.30;;
21494;SDS011;10909;53.590;10.054;2023-04-15T12:21:20;7.25;;;6.55;;
21494;SDS011;10909;53.590;10.054;2023-04-15T12:23:50;7.55;;;6.75;;
21494;SDS011;10909;53.590;10.054;2023-04-15T12:26:17;7.65;;;6.47;;
21494;SDS011;10909;53.590;10.054;2023-04-15T12:28:54;7.78;;;6.85;;
21494;SDS011;10909;53.590;10.054;2023-04-15T12:31:24;7.20;;;6.53;;
21494;SDS011;10909;53.590;10.054;2023-04-15T12:33:50;7.20;;;6.50;;
21494;SDS011;10909;53.590;10.054;2023-04-15T12:36:15;7.60;;;6.88;;
21494;SDS011;10909;53.590;10.054;2023-04-15T12:38:41;7.53;;;6.82;;
21494;SDS011;10909;53.590;10.054;2023-04-15T12:41:07;6.82;;;6.22;;
21494;SDS011;10909;53.590;10.054;2023-04-15T12:43:32;7.30;;;6.60;;
21494;SDS011;10909;53.590;10.054;2023-04-15T12:45:58;8.02;;;7.22;;
21494;SDS011;10909;53.590;10.054;2023-04-15T12:48:24;7.82;;;7.03;;
21494;SDS011;10909;53.590;10.054;2023-04-15T12:50:49;7.63;;;6.85;;
21494;SDS011;10909;53.590;10.054;2023-04-15T12:53:15;7.75;;;6.63;;
21494;SDS011;10909;53.590;10.054;2023-04-15T12:55:41;7.65;;;6.82;;
21494;SDS011;10909;53.590;10.054;2023-04-15T12:58:07;9.05;;;7.15;;
21494;SDS011;10909;53.590;10.054;2023-04-15T13:00:33;8.25;;;7.45;;
21494;SDS011;10909;53.590;10.054;2023-04-15T13:02:59;8.85;;;7.30;;
21494;SDS011;10909;53.590;10.054;2023-04-15T13:05:24;8.68;;;7.80;;
21494;SDS011;10909;53.590;10.054;2023-04-15T13:07:50;8.18;;;7.05;;
21494;SDS011;10909;53.590;10.054;2023-04-15T13:10:16;8.10;;;7.30;;
21494;SDS011;10909;53.590;10.054;2023-04-15T13:12:41;8.45;;;7.13;;
21494;SDS011;10909;53.590;10.054;2023-04-15T13:15:07;8.32;;;6.43;;
21494;SDS011;10909;53.590;10.054;2023-04-15T13:17:35;7.47;;;6.72;;
21494;SDS011;10909;53.590;10.054;2023-04-15T13:20:01;7.75;;;6.95;;
21494;SDS011;10909;53.590;10.054;2023-04-15T13:22:27;7.28;;;6.57;;
21494;SDS011;10909;53.590;10.054;2023-04-15T13:24:52;7.40;;;6.45;;
21494;SDS011;10909;53.590;10.054;2023-04-15T13:27:18;6.82;;;6.18;;
21494;SDS011;10909;53.590;10.054;2023-04-15T13:29:43;7.28;;;6.38;;
21494;SDS011;10909;53.590;10.054;2023-04-15T13:32:09;6.53;;;5.88;;
21494;SDS011;10909;53.590;10.054;2023-04-15T13:34:35;6.45;;;5.85;;
21494;SDS011;10909;53.590;10.054;2023-04-15T13:37:07;6.70;;;5.97;;
21494;SDS011;10909;53.590;10.054;2023-04-15T13:39:33;6.63;;;6.00;;
21494;SDS011;10909;53.590;10.054;2023-04-15T13:41:59;7.03;;;6.32;;
21494;SDS011;10909;53.590;10.054;2023-04-15T13:44:25;6.68;;;6.10;;
21494;SDS011;10909;53.590;10.054;2023-04-15T13:46:51;6.72;;;6.07;;
21494;SDS011;10909;53.590;10.054;2023-04-15T13:49:16;6.45;;;5.90;;
21494;SDS011;10909;53.590;10.054;2023-04-15T13:51:42;6.72;;;6.03;;
21494;SDS011;10909;53.590;10.054;2023-04-15T13:54:08;5.72;;;5.22;;
21494;SDS011;10909;53.590;10.054;2023-04-15T13:56:33;5.85;;;5.07;;
21494;SDS011;10909;53.590;10.054;2023-04-15T13:58:59;5.40;;;4.90;;
21494;SDS011;10909;53.590;10.054;2023-04-15T14:01:27;5.43;;;4.93;;
21494;SDS011;10909;53.590;10.054;2023-04-15T14:03:53;4.88;;;4.00;;
21494;SDS011;10909;53.590;10.054;2023-04-15T14:06:19;5.88;;;4.75;;
21494;SDS011;10909;53.590;10.054;2023-04-15T14:08:51;5.78;;;4.40;;
21494;SDS011;10909;53.590;10.054;2023-04-15T14:11:17;5.22;;;4.82;;
21494;SDS011;10909;53.590;10.054;2023-04-15T14:13:42;5.95;;;5.45;;
21494;SDS011;10909;53.590;10.054;2023-04-15T14:16:08;5.60;;;5.10;;
21494;SDS011;10909;53.590;10.054;2023-04-15T14:18:34;5.47;;;5.03;;
21494;SDS011;10909;53.590;10.054;2023-04-15T14:21:02;5.50;;;5.05;;
21494;SDS011;10909;53.590;10.054;2023-04-15T14:23:29;5.40;;;5.00;;
21494;SDS011;10909;53.590;10.054;2023-04-15T14:25:55;5.90;;;5.40;;
21494;SDS011;10909;53.590;10.054;2023-04-15T14:28:20;5.80;;;5.30;;
21494;SDS011;10909;53.590;10.054;2023-04-15T14:30:48;5.63;;;5.22;;
21494;SDS011;10909;53.590;10.054;2023-04-15T14:33:14;5.35;;;4.95;;
21494;SDS011;10909;53.590;10.054;2023-04-15T14:35:40;5.03;;;4.65;;
21494;SDS011;10909;53.590;10.054;2023-04-15T14:38:06;5.57;;;5.00;;
21494;SDS011;10909;53.590;10.054;2023-04-15T14:40:34;5.05;;;4.65;;
21494;SDS011;10909;53.590;10.054;2023-04-15T14:43:01;5.35;;;4.85;;